Pagina principale
METAR-TAF:

METAR-TAF

Aeroporti :

Aeroporto Internazionale di Mostar

Mostar, Bosnia-Erzegovina

latitudine: 43-21N, longitudine: 017-48E, altezza: 108 m

Osservazione

Il bollettino è stato emesso 18 minuti fa, alle 09:00 UTC
Vento 4 kt da direzioni variabili
Temperature 24°C
Umidità 57%
Pressione 1009 hPa
Visibilità 10 km o più
Nubi sparse ad un'altezza di 4500 ft

METAR: LQMO 070900Z VRB04KT 9999 SCT045 24/15 Q1009

Ora: 11:18 (09:18 UTC)

Previsione

Il bollettino è stato emesso 2 ore e 21 minuti fa, alle 06:57 UTC
Previsione valida dal 07 alle 06 UTC al 08 alle 06 UTC
Vento 2 kt da direzioni variabili
Visibilità 10 km o più
Nubi sparse ad un'altezza di 4500 ft
Temporaneamente
dal 07 alle 10 UTC al 07 alle 16 UTC
Vento 10 kt da sud
Poco nuvoloso ad un'altezza di 4000 ft, Cumulo congesto.
Nubi sparse ad un'altezza di 4500 ft

TAF: LQMO 070657Z 0706/0806 VRB02KT 9999 SCT045 TX28/0713Z TN16/0803Z TEMPO 0710/0716 17010KT FEW040TCU SCT045

Osservazioni e previsioni meteorologiche di più di 4000 aeroporti (messaggi METAR e TAF).

Le stazioni disponibili sono rappresentate dai dischi gialli e rossi sulla carta.

Puntare il mouse per vedere il nome della stazione.

Clicca sopra per visualizzare le osservazioni e previsioni meteorologiche.

Per cambiare la mappa : fare clic sui pulsanti verdi con una croce nera per ingrandire, il pulsante verde con un trattino per diminuire, o sulla freccia verde per le mappe adiacenti.


METAR-TAF: